createdAt,value
2023-05-17T00:06:57.132Z,87.07
2023-05-17T00:16:58.673Z,85.84
2023-05-17T00:27:00.243Z,92.01
2023-05-17T00:37:01.784Z,91.92
2023-05-17T00:47:03.344Z,89.13
2023-05-17T00:57:05.963Z,84.00
2023-05-17T01:07:07.530Z,91.43
2023-05-17T01:17:17.101Z,88.45
2023-05-17T01:27:20.816Z,88.51
2023-05-17T01:37:22.305Z,92.11
2023-05-17T01:47:52.597Z,89.73
2023-05-17T01:57:56.118Z,93.64
2023-05-17T02:07:57.899Z,91.02
2023-05-17T02:17:59.592Z,90.45
2023-05-17T02:28:01.029Z,89.41
2023-05-17T02:38:02.594Z,89.03
2023-05-17T02:48:04.333Z,83.96
2023-05-17T02:58:05.822Z,89.04
2023-05-17T03:08:07.311Z,86.92
2023-05-17T03:18:08.885Z,93.23
2023-05-17T03:28:10.560Z,89.40
2023-05-17T03:38:12.062Z,89.09
2023-05-17T03:48:13.635Z,88.75
2023-05-17T03:58:15.542Z,95.24
2023-05-17T04:08:17.012Z,92.29
2023-05-17T04:18:18.510Z,91.78
2023-05-17T04:28:22.002Z,89.81
2023-05-17T04:38:26.337Z,94.57
2023-05-17T04:48:31.044Z,92.81
2023-05-17T04:58:32.746Z,93.10
2023-05-17T05:08:34.613Z,89.96
2023-05-17T05:18:36.472Z,88.31
2023-05-17T05:28:38.243Z,87.38
2023-05-17T05:38:39.657Z,90.20
2023-05-17T05:48:42.133Z,92.46
2023-05-17T05:58:43.603Z,90.56
2023-05-17T06:08:47.146Z,86.59
2023-05-17T06:18:51.108Z,83.40
2023-05-17T06:28:52.903Z,81.35
2023-05-17T06:38:54.313Z,78.71
2023-05-17T06:48:56.242Z,75.51
2023-05-17T06:58:59.546Z,73.64
2023-05-17T07:09:01.028Z,73.81
2023-05-17T07:19:02.892Z,68.39
2023-05-17T07:29:04.547Z,68.36
2023-05-17T07:39:06.208Z,67.02
2023-05-17T07:49:07.894Z,65.54
2023-05-17T07:59:09.449Z,61.95
2023-05-17T08:09:11.132Z,62.10
2023-05-17T08:19:14.998Z,60.97
2023-05-17T08:29:17.145Z,61.77
2023-05-17T08:39:18.780Z,61.46
2023-05-17T08:49:22.723Z,63.49
2023-05-17T08:59:26.685Z,62.10
2023-05-17T09:09:28.680Z,62.91
2023-05-17T09:19:30.452Z,59.28
2023-05-17T09:29:32.569Z,60.03
2023-05-17T09:39:34.134Z,55.44
2023-05-17T09:49:36.455Z,53.36
2023-05-17T09:59:38.726Z,54.42
2023-05-17T10:09:40.972Z,55.75
2023-05-17T10:19:43.688Z,53.56
2023-05-17T10:29:49.933Z,54.09
2023-05-17T10:39:53.240Z,56.03
2023-05-17T10:49:55.874Z,56.84
2023-05-17T11:00:06.301Z,51.98
2023-05-17T11:10:12.102Z,55.24
2023-05-17T11:20:17.371Z,53.39
2023-05-17T11:30:24.628Z,51.79
2023-05-17T11:40:28.104Z,53.41
2023-05-17T11:50:30.066Z,54.19
2023-05-17T12:00:31.986Z,51.29
2023-05-17T12:10:34.912Z,51.47
2023-05-17T12:20:39.010Z,50.82
2023-05-17T12:30:40.714Z,50.95
2023-05-17T12:40:43.527Z,49.81
2023-05-17T12:50:46.274Z,50.78
2023-05-17T13:00:57.740Z,50.46
2023-05-17T13:11:13.553Z,48.49
2023-05-17T13:21:15.130Z,51.64
2023-05-17T13:31:16.609Z,50.01
2023-05-17T13:41:18.263Z,52.98
2023-05-17T13:51:19.751Z,49.33
2023-05-17T14:01:21.237Z,46.53
2023-05-17T14:11:22.852Z,50.81
2023-05-17T14:21:24.383Z,50.81
2023-05-17T14:31:28.352Z,50.44
2023-05-17T14:41:30.042Z,46.25
2023-05-17T14:51:31.659Z,46.89
2023-05-17T15:01:33.413Z,45.95
2023-05-17T15:11:34.890Z,49.16
2023-05-17T15:21:36.532Z,47.00
2023-05-17T15:31:38.288Z,48.08
2023-05-17T15:41:40.539Z,50.46
2023-05-17T15:51:42.090Z,48.42
2023-05-17T16:01:46.240Z,47.01
2023-05-17T16:11:47.740Z,48.35
2023-05-17T16:21:50.897Z,46.06
2023-05-17T16:31:52.899Z,45.62
2023-05-17T16:41:55.070Z,47.22
2023-05-17T16:51:56.661Z,46.36
2023-05-17T17:01:58.495Z,46.53
2023-05-17T17:12:02.753Z,47.08
2023-05-17T17:22:09.865Z,49.74
2023-05-17T17:32:11.594Z,48.99
2023-05-17T17:42:13.187Z,50.58
2023-05-17T17:52:14.765Z,49.42
2023-05-17T18:02:16.263Z,48.21
2023-05-17T18:12:18.258Z,50.41
2023-05-17T18:31:18.295Z,50.21
2023-05-17T18:41:19.826Z,51.03
2023-05-17T18:51:21.777Z,51.67
2023-05-17T19:01:23.608Z,52.60
2023-05-17T19:11:26.487Z,54.16
2023-05-17T19:21:28.120Z,53.84
2023-05-17T19:31:29.565Z,54.88
2023-05-17T19:41:31.182Z,54.47
2023-05-17T19:51:54.082Z,55.82
2023-05-17T20:02:16.141Z,55.26
2023-05-17T20:12:38.827Z,57.16
2023-05-17T20:22:42.449Z,57.18
2023-05-17T20:32:44.045Z,57.56
2023-05-17T20:43:07.716Z,59.22
2023-05-17T20:53:30.376Z,60.46
2023-05-17T21:03:52.367Z,61.73
2023-05-17T21:14:14.258Z,61.95
2023-05-17T21:24:36.134Z,62.74
2023-05-17T21:34:59.519Z,63.50
2023-05-17T21:45:21.479Z,61.90
2023-05-17T22:06:07.981Z,61.87
2023-05-17T22:16:33.007Z,64.39
2023-05-17T22:26:55.096Z,67.16
2023-05-17T22:37:17.531Z,63.08
2023-05-17T22:47:39.485Z,64.43
2023-05-17T22:58:01.278Z,64.83
2023-05-17T23:08:23.404Z,66.49
2023-05-17T23:18:27.393Z,72.32
2023-05-17T23:28:50.293Z,66.49
2023-05-17T23:38:51.791Z,69.86
2023-05-17T23:48:54.291Z,72.29
2023-05-17T23:59:16.012Z,71.52
